createdAt,value
2022-09-15T00:03:09.346Z,2.15
2022-09-15T00:08:12.974Z,2.53
2022-09-15T00:13:14.479Z,2.60
2022-09-15T00:18:16.582Z,2.50
2022-09-15T00:23:18.156Z,3.25
2022-09-15T00:28:22.221Z,2.85
2022-09-15T00:33:23.629Z,2.65
2022-09-15T00:38:24.977Z,3.17
2022-09-15T00:43:41.552Z,3.90
2022-09-15T00:49:11.874Z,3.25
2022-09-15T00:54:17.575Z,4.13
2022-09-15T00:59:23.056Z,3.40
2022-09-15T01:04:24.509Z,3.20
2022-09-15T01:09:36.112Z,3.90
2022-09-15T01:14:37.354Z,3.97
2022-09-15T01:20:06.566Z,3.85
2022-09-15T01:25:47.989Z,3.55
2022-09-15T01:31:07.421Z,2.25
2022-09-15T01:36:15.841Z,1.52
2022-09-15T01:41:39.499Z,0.95
2022-09-15T01:46:47.747Z,0.93
2022-09-15T01:51:52.168Z,0.88
2022-09-15T01:56:53.480Z,0.80
2022-09-15T02:02:07.219Z,1.02
2022-09-15T02:07:14.352Z,1.00
2022-09-15T02:12:42.275Z,1.00
2022-09-15T02:17:53.990Z,1.30
2022-09-15T02:22:57.170Z,2.63
2022-09-15T02:28:04.433Z,2.53
2022-09-15T02:33:10.708Z,1.83
2022-09-15T02:38:12.800Z,1.40
2022-09-15T02:43:17.414Z,1.83
2022-09-15T02:48:18.767Z,1.80
2022-09-15T02:53:20.011Z,1.83
2022-09-15T02:58:21.293Z,1.67
2022-09-15T03:03:22.863Z,2.25
2022-09-15T03:08:24.139Z,2.58
2022-09-15T03:13:25.395Z,3.47
2022-09-15T03:18:26.666Z,3.83
2022-09-15T03:23:27.957Z,3.40
2022-09-15T03:28:29.908Z,4.75
2022-09-15T03:33:31.704Z,5.03
2022-09-15T03:38:33.073Z,4.30
2022-09-15T03:43:35.473Z,4.82
2022-09-15T03:48:37.885Z,4.70
2022-09-15T03:53:41.211Z,5.00
2022-09-15T03:58:42.479Z,5.32
2022-09-15T04:03:48.871Z,4.90
2022-09-15T04:08:53.101Z,4.72
2022-09-15T04:13:54.792Z,4.75
2022-09-15T04:18:56.283Z,5.57
2022-09-15T04:23:57.692Z,5.40
2022-09-15T04:29:03.950Z,4.78
2022-09-15T04:34:06.149Z,3.47
2022-09-15T04:39:07.429Z,3.63
2022-09-15T04:44:08.732Z,3.60
2022-09-15T04:49:10.046Z,3.95
2022-09-15T04:54:11.320Z,3.58
2022-09-15T04:59:15.494Z,3.38
2022-09-15T05:04:16.761Z,3.60
2022-09-15T05:09:18.024Z,4.00
2022-09-15T05:14:19.312Z,4.25
2022-09-15T05:19:20.640Z,3.85
2022-09-15T05:24:22.314Z,4.05
2022-09-15T05:29:23.827Z,3.60
2022-09-15T05:34:25.183Z,4.20
2022-09-15T05:39:26.870Z,4.55
2022-09-15T05:44:28.742Z,4.80
2022-09-15T05:49:30.432Z,4.45
2022-09-15T05:54:31.765Z,4.65
2022-09-15T05:59:35.888Z,4.80
2022-09-15T06:04:37.392Z,5.03
2022-09-15T06:09:39.362Z,5.13
2022-09-15T06:14:43.237Z,4.72
2022-09-15T06:24:46.027Z,5.50
2022-09-15T06:29:47.417Z,5.03
2022-09-15T06:34:48.726Z,4.30
2022-09-15T06:39:50.125Z,4.40
2022-09-15T06:44:51.574Z,3.03
2022-09-15T06:49:54.669Z,3.15
2022-09-15T06:54:57.193Z,2.75
2022-09-15T06:59:58.486Z,2.83
2022-09-15T07:04:59.954Z,2.83
2022-09-15T07:10:02.343Z,2.60
2022-09-15T07:15:04.081Z,2.22
2022-09-15T07:20:05.989Z,2.22
2022-09-15T07:25:07.736Z,2.25
2022-09-15T07:30:10.314Z,1.90
2022-09-15T07:35:11.649Z,2.60
2022-09-15T07:40:13.260Z,1.75
2022-09-15T07:45:15.114Z,1.80
2022-09-15T07:50:16.613Z,1.98
2022-09-15T07:55:18.327Z,2.03
2022-09-15T08:00:19.661Z,2.30
2022-09-15T08:05:21.823Z,1.40
2022-09-15T08:10:25.078Z,1.60
2022-09-15T08:15:26.419Z,1.58
2022-09-15T08:20:27.701Z,1.55
2022-09-15T08:25:30.079Z,1.52
2022-09-15T08:30:31.983Z,1.60
2022-09-15T08:35:34.248Z,1.20
2022-09-15T08:40:37.855Z,1.52
2022-09-15T08:45:54.862Z,1.00
2022-09-15T08:50:59.715Z,1.38
2022-09-15T08:56:11.200Z,1.48
2022-09-15T09:01:32.768Z,1.33
2022-09-15T09:07:09.136Z,0.80
2022-09-15T09:12:32.393Z,0.80
2022-09-15T09:18:11.542Z,0.60
2022-09-15T09:23:17.777Z,0.93
2022-09-15T09:28:37.483Z,0.80
2022-09-15T09:33:47.835Z,0.77
2022-09-15T09:38:50.285Z,0.88
2022-09-15T09:43:54.833Z,1.15
2022-09-15T09:49:02.730Z,1.17
2022-09-15T09:54:12.603Z,1.35
2022-09-15T09:59:42.122Z,1.15
2022-09-15T10:04:49.142Z,1.50
2022-09-15T10:09:56.445Z,1.52
2022-09-15T10:15:02.033Z,1.30
2022-09-15T10:20:06.726Z,1.65
2022-09-15T10:25:20.137Z,1.75
2022-09-15T10:30:22.102Z,1.90
2022-09-15T10:35:23.394Z,2.10
2022-09-15T10:40:37.949Z,2.22
2022-09-15T10:45:43.310Z,2.47
2022-09-15T10:50:58.649Z,2.70
2022-09-15T10:56:20.966Z,2.53
2022-09-15T11:01:36.599Z,2.10
2022-09-15T11:07:08.937Z,2.20
2022-09-15T11:12:19.461Z,2.47
2022-09-15T11:17:47.705Z,2.80
2022-09-15T11:22:59.766Z,4.15
2022-09-15T11:28:20.017Z,3.70
2022-09-15T11:33:29.664Z,4.60
2022-09-15T11:38:30.873Z,4.05
2022-09-15T11:43:37.434Z,4.80
2022-09-15T11:48:53.094Z,4.53
2022-09-15T11:54:13.590Z,4.15
2022-09-15T11:59:25.823Z,3.67
2022-09-15T12:04:32.811Z,3.05
2022-09-15T12:09:34.231Z,3.03
2022-09-15T12:14:38.728Z,2.58
2022-09-15T12:19:57.989Z,2.00
2022-09-15T12:25:06.480Z,2.13
2022-09-15T12:30:38.268Z,1.80
2022-09-15T12:35:39.534Z,1.55
2022-09-15T12:40:41.752Z,1.30
2022-09-15T12:45:54.034Z,1.50
2022-09-15T12:50:59.921Z,1.67
2022-09-15T12:56:07.153Z,1.90
2022-09-15T13:01:26.949Z,2.25
2022-09-15T13:06:30.705Z,2.97
2022-09-15T13:11:36.749Z,3.00
2022-09-15T13:16:44.026Z,3.60
2022-09-15T13:21:53.789Z,4.15
2022-09-15T13:26:56.213Z,3.58
2022-09-15T13:32:15.693Z,3.65
2022-09-15T13:38:12.156Z,3.60
2022-09-15T13:43:53.158Z,3.72
2022-09-15T13:49:13.793Z,3.05
2022-09-15T13:54:18.954Z,3.40
2022-09-15T13:59:25.332Z,3.20
2022-09-15T14:04:30.640Z,3.90
2022-09-15T14:09:44.530Z,3.58
2022-09-15T14:14:51.362Z,3.30
2022-09-15T14:19:55.901Z,3.05
2022-09-15T14:24:59.123Z,3.22
2022-09-15T14:30:09.188Z,3.35
2022-09-15T14:35:19.778Z,3.00
2022-09-15T14:40:30.771Z,3.47
2022-09-15T14:51:14.678Z,3.00
2022-09-15T14:56:23.093Z,2.83
2022-09-15T15:01:26.658Z,2.10
2022-09-15T15:06:54.293Z,1.92
2022-09-15T15:12:02.305Z,2.60
2022-09-15T15:17:05.899Z,2.30
2022-09-15T15:22:25.967Z,2.28
2022-09-15T15:27:37.619Z,2.90
2022-09-15T15:32:42.645Z,2.50
2022-09-15T15:37:44.105Z,2.55
2022-09-15T15:42:56.499Z,2.85
2022-09-15T15:48:02.949Z,2.83
2022-09-15T15:53:04.217Z,2.90
2022-09-15T15:58:06.212Z,2.60
2022-09-15T16:03:09.122Z,2.90
2022-09-15T16:08:22.736Z,2.50
2022-09-15T16:13:25.130Z,2.63
2022-09-15T16:18:27.215Z,2.83
2022-09-15T16:23:28.546Z,2.50
2022-09-15T16:28:30.073Z,2.85
2022-09-15T16:33:34.677Z,2.88
2022-09-15T16:38:40.150Z,2.50
2022-09-15T16:43:41.966Z,2.80
2022-09-15T16:48:44.097Z,2.88
2022-09-15T16:53:48.281Z,2.38
2022-09-15T16:58:49.524Z,2.53
2022-09-15T17:03:50.906Z,2.08
2022-09-15T17:08:52.293Z,1.95
2022-09-15T17:13:53.797Z,1.92
2022-09-15T17:18:55.235Z,3.22
2022-09-15T17:23:56.477Z,1.85
2022-09-15T17:28:58.230Z,2.50
2022-09-15T17:34:00.906Z,1.58
2022-09-15T17:39:02.189Z,1.77
2022-09-15T17:44:03.425Z,2.00
2022-09-15T17:49:04.680Z,2.25
2022-09-15T17:54:07.296Z,1.63
2022-09-15T17:59:11.850Z,2.08
2022-09-15T18:04:15.529Z,1.67
2022-09-15T18:09:17.568Z,1.50
2022-09-15T18:14:18.908Z,2.15
2022-09-15T18:19:20.317Z,2.05
2022-09-15T18:24:21.633Z,2.67
2022-09-15T18:29:22.949Z,2.28
2022-09-15T18:34:24.478Z,2.03
2022-09-15T18:39:25.907Z,1.92
2022-09-15T18:44:27.173Z,2.13
2022-09-15T18:49:28.459Z,1.98
2022-09-15T18:54:29.808Z,2.30
2022-09-15T18:59:31.095Z,1.90
2022-09-15T19:04:36.096Z,2.42
2022-09-15T19:09:39.953Z,2.08
2022-09-15T19:14:45.935Z,1.92
2022-09-15T19:19:48.101Z,1.30
2022-09-15T19:24:49.411Z,2.00
2022-09-15T19:29:50.934Z,1.50
2022-09-15T19:34:52.259Z,1.70
2022-09-15T19:39:54.619Z,2.10
2022-09-15T19:44:55.945Z,1.60
2022-09-15T19:49:57.219Z,1.40
2022-09-15T19:54:58.663Z,1.63
2022-09-15T20:00:00.104Z,1.45
2022-09-15T20:05:01.514Z,1.30
2022-09-15T20:10:03.736Z,1.45
2022-09-15T20:15:05.798Z,1.10
2022-09-15T20:20:07.588Z,1.40
2022-09-15T20:25:08.890Z,1.42
2022-09-15T20:30:10.513Z,1.45
2022-09-15T20:35:12.599Z,1.10
2022-09-15T20:40:13.918Z,1.45
2022-09-15T20:45:15.486Z,1.38
2022-09-15T20:50:17.073Z,1.38
2022-09-15T20:55:19.012Z,1.73
2022-09-15T21:00:20.304Z,1.33
2022-09-15T21:05:21.592Z,1.38
2022-09-15T21:10:24.325Z,0.90
2022-09-15T21:15:27.515Z,0.98
2022-09-15T21:20:28.950Z,1.90
2022-09-15T21:25:30.191Z,1.23
2022-09-15T21:30:31.437Z,1.50
2022-09-15T21:35:33.436Z,0.85
2022-09-15T21:40:34.965Z,1.35
2022-09-15T21:45:37.015Z,1.85
2022-09-15T21:50:38.335Z,1.20
2022-09-15T21:55:39.552Z,1.73
2022-09-15T22:00:43.402Z,1.33
2022-09-15T22:05:46.685Z,1.10
2022-09-15T22:10:47.943Z,1.30
2022-09-15T22:15:49.202Z,1.30
2022-09-15T22:20:52.256Z,1.20
2022-09-15T22:25:53.516Z,1.58
2022-09-15T22:31:03.703Z,1.10
2022-09-15T22:36:06.146Z,1.00
2022-09-15T22:41:10.120Z,1.15
2022-09-15T22:51:14.530Z,1.33
2022-09-15T22:56:20.578Z,1.85
2022-09-15T23:01:27.859Z,1.10
2022-09-15T23:06:32.194Z,1.08
2022-09-15T23:11:34.416Z,1.10
2022-09-15T23:16:35.974Z,1.00
2022-09-15T23:21:37.331Z,0.98
2022-09-15T23:26:38.739Z,1.30
2022-09-15T23:31:40.148Z,1.10
2022-09-15T23:36:41.592Z,1.00
2022-09-15T23:41:43.467Z,1.00
2022-09-15T23:46:44.904Z,1.33
2022-09-15T23:51:46.462Z,1.20
2022-09-15T23:56:47.805Z,1.10
